Time;durP1;ratioP1;P1;durP2;ratioP2;P2;SDS_P1;SDS_P2;PMS_P1;PMS_P2;Temp;Humidity;BMP_temperature;BMP_pressure;BME280_temperature;BME280_humidity;BME280_pressure;Samples;Min_cycle;Max_cycle;Signal;HPM_P1;HPM_P2
2023/04/07 00:01:48;;;;;;;;;;;8.60;1.00;;;;;;5077106;28;19966;-73
2023/04/07 00:04:15;;;;;;;;;;;8.50;1.00;;;;;;5077484;28;19905;-72
2023/04/07 00:06:42;;;;;;;;;;;8.50;1.00;;;;;;5076473;28;19970;-73
2023/04/07 00:09:08;;;;;;;;;;;8.60;1.00;;;;;;5076941;28;20304;-73
2023/04/07 00:11:34;;;;;;;;;;;8.60;1.00;;;;;;5084321;28;20370;-73
2023/04/07 00:13:59;;;;;;;;;;;8.60;1.00;;;;;;5092893;28;19943;-73
2023/04/07 00:16:25;;;;;;;;;;;8.50;1.00;;;;;;5085910;28;19908;-73
2023/04/07 00:18:51;;;;;;;;;;;8.50;1.00;;;;;;5081932;28;19912;-72
2023/04/07 00:21:16;;;;;;;;;;;8.50;1.00;;;;;;5063980;28;20497;-73
2023/04/07 00:23:42;;;;;;;;;;;8.50;1.00;;;;;;5077074;28;20026;-73
2023/04/07 00:26:45;;;;;;;;;;;8.60;1.00;;;;;;5092780;28;19943;-81
2023/04/07 00:29:15;;;;;;;;;;;8.60;1.00;;;;;;5097321;28;19911;-80
2023/04/07 00:31:41;;;;;;;;;;;8.50;1.00;;;;;;5097452;28;19908;-80
2023/04/07 00:34:06;;;;;;;;;;;8.60;1.00;;;;;;5084116;28;19916;-80
2023/04/07 00:36:33;;;;;;;;;;;8.60;1.00;;;;;;5081658;28;19904;-80
2023/04/07 00:39:09;;;;;;;;;;;8.60;1.00;;;;;;5078134;28;19908;-80
2023/04/07 00:41:35;;;;;;;;;;;8.60;1.00;;;;;;5087464;28;19912;-73
2023/04/07 00:44:00;;;;;;;;;;;8.50;1.00;;;;;;5075244;28;19965;-73
2023/04/07 00:46:26;;;;;;;;;;;8.50;1.00;;;;;;5080212;28;19916;-73
2023/04/07 00:48:52;;;;;;;;;;;8.50;1.00;;;;;;5076211;28;19961;-73
2023/04/07 00:51:21;;;;;;;;;;;8.50;1.00;;;;;;5082257;28;19915;-73
2023/04/07 00:53:47;;;;;;;;;;;8.50;1.00;;;;;;5094065;28;19954;-73
2023/04/07 00:56:13;;;;;;;;;;;8.50;1.00;;;;;;5076928;28;19958;-73
2023/04/07 00:58:39;;;;;;;;;;;8.60;1.00;;;;;;5088157;28;19904;-73
2023/04/07 01:01:12;;;;;;;;;;;8.50;1.00;;;;;;5095693;28;19908;-73
2023/04/07 01:03:48;;;;;;;;;;;8.50;1.00;;;;;;5095674;28;19955;-73
2023/04/07 01:06:16;;;;;;;;;;;8.50;1.00;;;;;;5092250;28;19912;-73
2023/04/07 01:08:51;;;;;;;;;;;8.50;1.00;;;;;;5081615;28;19911;-73
2023/04/07 01:11:31;;;;;;;;;;;8.50;1.00;;;;;;5075274;28;19915;-80
2023/04/07 01:13:58;;;;;;;;;;;8.60;1.00;;;;;;5073354;28;19966;-80
2023/04/07 01:16:38;;;;;;;;;;;8.60;1.00;;;;;;5096127;28;20037;-81
2023/04/07 01:19:27;;;;;;;;;;;8.60;1.00;;;;;;5093796;28;20366;-80
2023/04/07 01:21:57;;;;;;;;;;;8.60;1.00;;;;;;5090328;28;19904;-80
2023/04/07 01:27:27;;;;;;;;;;;8.60;1.00;;;;;;5091802;28;20405;-80
2023/04/07 01:30:00;;;;;;;;;;;8.50;1.00;;;;;;5096100;28;19911;-80
2023/04/07 01:32:34;;;;;;;;;;;8.60;1.00;;;;;;5086091;28;19959;-81
2023/04/07 01:35:01;;;;;;;;;;;8.50;1.00;;;;;;5075727;28;20323;-80
2023/04/07 01:37:57;;;;;;;;;;;8.60;1.00;;;;;;5084797;28;19929;-80
2023/04/07 01:40:28;;;;;;;;;;;8.60;1.00;;;;;;5096132;28;19953;-80
2023/04/07 01:42:55;;;;;;;;;;;8.60;1.00;;;;;;5078543;28;19915;-80
2023/04/07 01:45:34;;;;;;;;;;;8.50;1.00;;;;;;5075390;28;19957;-80
2023/04/07 01:48:04;;;;;;;;;;;8.50;1.00;;;;;;5091696;28;19915;-80
2023/04/07 01:50:34;;;;;;;;;;;8.50;1.00;;;;;;5092098;28;19955;-80
2023/04/07 01:53:03;;;;;;;;;;;8.50;1.00;;;;;;5074992;28;19919;-80
2023/04/07 01:55:33;;;;;;;;;;;8.50;1.00;;;;;;5075336;28;19927;-80
2023/04/07 01:58:05;;;;;;;;;;;8.50;1.00;;;;;;5081258;28;20434;-80
2023/04/07 02:01:03;;;;;;;;;;;8.50;1.00;;;;;;5088847;28;19935;-80
2023/04/07 02:03:43;;;;;;;;;;;8.50;1.00;;;;;;5075387;28;19946;-80
2023/04/07 02:06:23;;;;;;;;;;;8.50;1.00;;;;;;5077755;28;19915;-80
2023/04/07 02:08:53;;;;;;;;;;;8.50;1.00;;;;;;5095288;28;19904;-80
2023/04/07 02:11:22;;;;;;;;;;;8.50;1.00;;;;;;5080885;28;20499;-74
2023/04/07 02:13:48;;;;;;;;;;;8.50;1.00;;;;;;5074800;28;19993;-74
2023/04/07 02:16:15;;;;;;;;;;;8.50;1.00;;;;;;5093467;28;20260;-73
2023/04/07 02:18:42;;;;;;;;;;;8.50;1.00;;;;;;5094418;28;19904;-74
2023/04/07 02:21:07;;;;;;;;;;;8.50;1.00;;;;;;5080650;28;19908;-74
2023/04/07 02:23:36;;;;;;;;;;;8.50;1.00;;;;;;5077098;28;19931;-74
2023/04/07 02:26:02;;;;;;;;;;;8.50;1.00;;;;;;5077023;28;19935;-74
2023/04/07 02:28:28;;;;;;;;;;;8.50;1.00;;;;;;5085026;28;20347;-74
2023/04/07 02:30:53;;;;;;;;;;;8.40;1.00;;;;;;5092711;28;19950;-74
2023/04/07 02:33:19;;;;;;;;;;;8.40;1.00;;;;;;5072948;28;19912;-74
2023/04/07 02:35:45;;;;;;;;;;;8.50;1.00;;;;;;5092080;28;19970;-73
2023/04/07 02:38:10;;;;;;;;;;;8.40;1.00;;;;;;5086013;28;19958;-73
2023/04/07 02:40:36;;;;;;;;;;;8.40;1.00;;;;;;5073673;28;19908;-73
2023/04/07 02:43:03;;;;;;;;;;;8.40;1.00;;;;;;5094283;28;19914;-80
2023/04/07 02:45:29;;;;;;;;;;;8.40;1.00;;;;;;5070423;28;19904;-81
2023/04/07 02:47:55;;;;;;;;;;;8.40;1.00;;;;;;5076737;28;19990;-80
2023/04/07 02:50:21;;;;;;;;;;;8.40;1.00;;;;;;5091784;28;19904;-80
2023/04/07 02:52:46;;;;;;;;;;;8.40;1.00;;;;;;5092672;28;20006;-80
2023/04/07 02:55:12;;;;;;;;;;;8.40;1.00;;;;;;5074262;28;20415;-80
2023/04/07 02:57:38;;;;;;;;;;;8.40;1.00;;;;;;5081951;28;19909;-80
2023/04/07 03:00:27;;;;;;;;;;;8.30;1.00;;;;;;5088863;28;19908;-80
2023/04/07 03:02:57;;;;;;;;;;;8.30;1.00;;;;;;5055815;28;19905;-81
2023/04/07 03:05:33;;;;;;;;;;;8.40;1.00;;;;;;5074073;28;19915;-80
2023/04/07 03:08:03;;;;;;;;;;;8.40;1.00;;;;;;5075170;28;19947;-80
2023/04/07 03:10:33;;;;;;;;;;;8.40;1.00;;;;;;5076267;28;20271;-81
2023/04/07 03:12:59;;;;;;;;;;;8.40;1.00;;;;;;5092246;28;20012;-73
2023/04/07 03:15:27;;;;;;;;;;;8.40;1.00;;;;;;5078017;28;20356;-73
2023/04/07 03:18:03;;;;;;;;;;;8.40;1.00;;;;;;5074149;28;20363;-73
2023/04/07 03:20:29;;;;;;;;;;;8.40;1.00;;;;;;5072712;28;19950;-73
2023/04/07 03:22:54;;;;;;;;;;;8.40;1.00;;;;;;5073204;28;19908;-73
2023/04/07 03:25:20;;;;;;;;;;;8.40;1.00;;;;;;5085425;28;19994;-73
2023/04/07 03:27:46;;;;;;;;;;;8.40;1.00;;;;;;5087663;28;19920;-73
2023/04/07 03:30:11;;;;;;;;;;;8.40;1.00;;;;;;5074000;28;20390;-73
2023/04/07 03:32:37;;;;;;;;;;;8.40;1.00;;;;;;5075716;28;19961;-73
2023/04/07 03:35:02;;;;;;;;;;;8.40;1.00;;;;;;5071954;28;19919;-73
2023/04/07 03:37:28;;;;;;;;;;;8.40;1.00;;;;;;5080173;28;19904;-73
2023/04/07 03:39:54;;;;;;;;;;;8.40;1.00;;;;;;5084953;28;19916;-73
2023/04/07 03:42:19;;;;;;;;;;;8.40;1.00;;;;;;5077954;28;19908;-73
2023/04/07 03:44:45;;;;;;;;;;;8.40;1.00;;;;;;5096461;28;19912;-72
2023/04/07 03:47:10;;;;;;;;;;;8.40;1.00;;;;;;5083949;28;19995;-73
2023/04/07 03:49:37;;;;;;;;;;;8.40;1.00;;;;;;5086760;28;19912;-73
2023/04/07 03:52:04;;;;;;;;;;;8.40;1.00;;;;;;5097994;28;19903;-73
2023/04/07 03:54:29;;;;;;;;;;;8.40;1.00;;;;;;5096655;28;19918;-73
2023/04/07 03:56:56;;;;;;;;;;;8.40;1.00;;;;;;5098022;28;19904;-73
2023/04/07 03:59:21;;;;;;;;;;;8.40;1.00;;;;;;5092218;28;19912;-73
2023/04/07 04:01:47;;;;;;;;;;;8.40;1.00;;;;;;5079485;28;19931;-73
2023/04/07 04:04:13;;;;;;;;;;;8.40;1.00;;;;;;5094737;28;19908;-73
2023/04/07 04:06:38;;;;;;;;;;;8.40;1.00;;;;;;5097722;28;19962;-73
2023/04/07 04:09:04;;;;;;;;;;;8.40;1.00;;;;;;5094523;28;19908;-73
2023/04/07 04:11:30;;;;;;;;;;;8.40;1.00;;;;;;5091079;28;19908;-73
2023/04/07 04:13:57;;;;;;;;;;;8.40;1.00;;;;;;5060277;28;19966;-73
2023/04/07 04:16:23;;;;;;;;;;;8.40;1.00;;;;;;5077256;28;19904;-73
2023/04/07 04:18:48;;;;;;;;;;;8.40;1.00;;;;;;5080092;28;19958;-73
2023/04/07 04:21:14;;;;;;;;;;;8.40;1.00;;;;;;5077131;28;19926;-73
2023/04/07 04:23:40;;;;;;;;;;;8.40;1.00;;;;;;5077516;28;19908;-73
2023/04/07 04:26:05;;;;;;;;;;;8.40;1.00;;;;;;5059126;28;20251;-73
2023/04/07 04:28:39;;;;;;;;;;;8.40;1.00;;;;;;5090732;28;19908;-81
2023/04/07 04:31:17;;;;;;;;;;;8.40;1.00;;;;;;5086707;28;19915;-80
2023/04/07 04:36:57;;;;;;;;;;;8.40;1.00;;;;;;5076907;28;19915;-80
2023/04/07 04:39:33;;;;;;;;;;;8.30;1.00;;;;;;5082357;28;19912;-80
2023/04/07 04:42:33;;;;;;;;;;;8.30;1.00;;;;;;5076719;28;19950;-80
2023/04/07 04:44:59;;;;;;;;;;;8.40;1.00;;;;;;5076303;28;19962;-73
2023/04/07 04:47:24;;;;;;;;;;;8.30;1.00;;;;;;5076028;28;19912;-73
2023/04/07 04:49:50;;;;;;;;;;;8.40;1.00;;;;;;5064997;28;19914;-73
2023/04/07 04:52:16;;;;;;;;;;;8.30;1.00;;;;;;5095685;28;19915;-73
2023/04/07 04:54:41;;;;;;;;;;;8.30;1.00;;;;;;5087552;28;19935;-73
2023/04/07 04:57:09;;;;;;;;;;;8.30;1.00;;;;;;5076522;28;19908;-79
2023/04/07 04:59:45;;;;;;;;;;;8.30;1.00;;;;;;5077318;28;19904;-87
2023/04/07 05:02:27;;;;;;;;;;;8.30;1.00;;;;;;5077147;28;19912;-81
2023/04/07 05:05:15;;;;;;;;;;;8.30;1.00;;;;;;5076092;28;19908;-81
2023/04/07 05:08:03;;;;;;;;;;;8.40;1.00;;;;;;5074666;28;20351;-81
2023/04/07 05:10:36;;;;;;;;;;;8.40;1.00;;;;;;5074524;28;19911;-81
2023/04/07 05:13:03;;;;;;;;;;;8.30;1.00;;;;;;5076385;28;19904;-80
2023/04/07 05:15:51;;;;;;;;;;;8.30;1.00;;;;;;5087274;28;19936;-81
2023/04/07 05:18:33;;;;;;;;;;;8.40;1.00;;;;;;5095647;28;19912;-82
2023/04/07 05:21:27;;;;;;;;;;;8.30;1.00;;;;;;5095665;28;20042;-81
2023/04/07 05:26:56;;;;;;;;;;;8.40;1.00;;;;;;5083837;28;19919;-81
2023/04/07 05:29:27;;;;;;;;;;;8.40;1.00;;;;;;5066345;28;20314;-79
2023/04/07 05:32:04;;;;;;;;;;;8.40;1.00;;;;;;5096352;28;19915;-79
2023/04/07 05:34:33;;;;;;;;;;;8.40;1.00;;;;;;5095670;28;20003;-79
2023/04/07 05:37:03;;;;;;;;;;;8.40;1.00;;;;;;5093567;28;20363;-79
2023/04/07 05:40:03;;;;;;;;;;;8.40;1.00;;;;;;5092032;28;19911;-79
2023/04/07 05:45:32;;;;;;;;;;;8.50;1.00;;;;;;5081429;28;19915;-80
2023/04/07 05:48:34;;;;;;;;;;;8.50;1.00;;;;;;5095895;28;19904;-81
2023/04/07 05:51:33;;;;;;;;;;;8.50;1.00;;;;;;5077871;28;20039;-82
2023/04/07 05:54:09;;;;;;;;;;;8.50;1.00;;;;;;5075548;28;19918;-82
2023/04/07 05:59:39;;;;;;;;;;;8.50;1.00;;;;;;5078589;28;19946;-81
2023/04/07 06:05:09;;;;;;;;;;;8.50;1.00;;;;;;5077959;28;20366;-80
2023/04/07 06:07:45;;;;;;;;;;;8.60;1.00;;;;;;5080482;28;20409;-80
2023/04/07 06:10:21;;;;;;;;;;;8.60;1.00;;;;;;5074861;28;19995;-80
2023/04/07 06:12:57;;;;;;;;;;;8.60;1.00;;;;;;5074869;28;19908;-81
2023/04/07 06:15:57;;;;;;;;;;;8.60;1.00;;;;;;5079551;28;20002;-79
2023/04/07 06:18:57;;;;;;;;;;;8.60;1.00;;;;;;5081578;28;19916;-79
2023/04/07 06:21:33;;;;;;;;;;;8.60;1.00;;;;;;5089759;28;19908;-79
2023/04/07 06:24:03;;;;;;;;;;;8.60;1.00;;;;;;5074354;28;20334;-79
2023/04/07 06:26:33;;;;;;;;;;;8.60;1.00;;;;;;5074430;28;20358;-79
2023/04/07 06:29:33;;;;;;;;;;;8.60;1.00;;;;;;5074456;28;19966;-79
2023/04/07 06:32:09;;;;;;;;;;;8.70;1.00;;;;;;5086621;28;19915;-80
2023/04/07 06:34:57;;;;;;;;;;;8.70;1.00;;;;;;5080578;28;19908;-80
2023/04/07 06:37:33;;;;;;;;;;;8.80;1.00;;;;;;5073884;28;20421;-80
2023/04/07 06:39:59;;;;;;;;;;;8.80;1.00;;;;;;5093202;28;19904;-80
2023/04/07 06:42:39;;;;;;;;;;;8.80;1.00;;;;;;5074053;28;20041;-80
2023/04/07 06:45:33;;;;;;;;;;;8.80;1.00;;;;;;5088257;28;19904;-80
2023/04/07 06:47:59;;;;;;;;;;;8.80;1.00;;;;;;5074891;28;19915;-79
2023/04/07 06:50:51;;;;;;;;;;;8.80;1.00;;;;;;5074379;28;19904;-79
2023/04/07 06:53:21;;;;;;;;;;;8.80;1.00;;;;;;5083906;28;19912;-79
2023/04/07 06:56:04;;;;;;;;;;;8.80;1.00;;;;;;5073996;28;19916;-79
2023/04/07 06:58:34;;;;;;;;;;;8.80;1.00;;;;;;5073730;28;19908;-79
2023/04/07 07:01:21;;;;;;;;;;;8.80;1.00;;;;;;5073686;28;19908;-79
2023/04/07 07:03:51;;;;;;;;;;;8.80;1.00;;;;;;5077100;28;19952;-79
2023/04/07 07:06:21;;;;;;;;;;;8.90;1.00;;;;;;5082962;28;19966;-80
2023/04/07 07:08:51;;;;;;;;;;;8.90;1.00;;;;;;5089824;28;19966;-79
2023/04/07 07:11:33;;;;;;;;;;;9.00;1.00;;;;;;5077041;28;19912;-79
2023/04/07 07:14:03;;;;;;;;;;;9.10;1.00;;;;;;5080075;28;19958;-79
2023/04/07 07:16:47;;;;;;;;;;;9.10;1.00;;;;;;5094259;28;19904;-79
2023/04/07 07:19:15;;;;;;;;;;;9.20;1.00;;;;;;5073723;28;19908;-79
2023/04/07 07:22:03;;;;;;;;;;;9.20;1.00;;;;;;5070345;28;19915;-79
2023/04/07 07:24:32;;;;;;;;;;;9.30;1.00;;;;;;5093983;28;19904;-80
2023/04/07 07:27:03;;;;;;;;;;;9.20;1.00;;;;;;5093972;28;19998;-80
2023/04/07 07:29:33;;;;;;;;;;;9.30;1.00;;;;;;5092386;28;19919;-79
2023/04/07 07:32:12;;;;;;;;;;;9.30;1.00;;;;;;5076112;28;19916;-79
2023/04/07 07:34:38;;;;;;;;;;;9.40;1.00;;;;;;5093739;28;19919;-79
2023/04/07 07:37:04;;;;;;;;;;;9.50;1.00;;;;;;5093826;28;20262;-80
2023/04/07 07:39:29;;;;;;;;;;;9.60;1.00;;;;;;5093594;28;19927;-80
2023/04/07 07:41:56;;;;;;;;;;;9.70;1.00;;;;;;5093702;28;20465;-82
2023/04/07 07:44:22;;;;;;;;;;;9.70;1.00;;;;;;5083336;28;19970;-81
2023/04/07 07:46:51;;;;;;;;;;;9.80;1.00;;;;;;5056000;28;19908;-77
2023/04/07 07:49:17;;;;;;;;;;;9.90;1.00;;;;;;5073496;28;19916;-76
2023/04/07 07:51:44;;;;;;;;;;;9.90;1.00;;;;;;5089071;28;19908;-76
2023/04/07 07:54:15;;;;;;;;;;;10.00;1.00;;;;;;5075477;28;19914;-76
2023/04/07 07:56:45;;;;;;;;;;;10.00;1.00;;;;;;5093767;28;19973;-76
2023/04/07 07:59:11;;;;;;;;;;;10.00;1.00;;;;;;5088814;28;19904;-76
2023/04/07 08:01:39;;;;;;;;;;;10.10;1.00;;;;;;5073964;28;19915;-76
2023/04/07 08:04:39;;;;;;;;;;;10.10;1.00;;;;;;5073684;28;19970;-76
2023/04/07 08:07:21;;;;;;;;;;;10.20;1.00;;;;;;5072901;28;19912;-76
2023/04/07 08:09:47;;;;;;;;;;;10.30;1.00;;;;;;5087217;28;19911;-71
2023/04/07 08:12:12;;;;;;;;;;;10.40;1.00;;;;;;5093314;28;20370;-71
2023/04/07 08:14:39;;;;;;;;;;;10.40;1.00;;;;;;5074815;28;19908;-71
2023/04/07 08:17:05;;;;;;;;;;;10.60;1.00;;;;;;5091404;28;19908;-71
2023/04/07 08:20:03;;;;;;;;;;;10.70;1.00;;;;;;5082856;28;19958;-84
2023/04/07 08:22:57;;;;;;;;;;;10.90;1.00;;;;;;5077072;28;20406;-83
2023/04/07 08:25:28;;;;;;;;;;;11.00;1.00;;;;;;5085007;28;19916;-85
2023/04/07 08:28:03;;;;;;;;;;;11.20;1.00;;;;;;5059148;28;19915;-84
2023/04/07 08:30:29;;;;;;;;;;;11.20;1.00;;;;;;5058924;28;19904;-84
2023/04/07 08:33:04;;;;;;;;;;;11.20;1.00;;;;;;5077166;28;19916;-84
2023/04/07 08:36:03;;;;;;;;;;;11.20;1.00;;;;;;5086984;28;20421;-84
2023/04/07 08:39:04;;;;;;;;;;;11.20;1.00;;;;;;5077022;28;19912;-85
2023/04/07 08:41:37;;;;;;;;;;;11.20;1.00;;;;;;5058957;28;19912;-84
2023/04/07 08:44:03;;;;;;;;;;;11.20;1.00;;;;;;5076916;28;20335;-85
2023/04/07 08:46:34;;;;;;;;;;;11.20;1.00;;;;;;5076953;28;19966;-84
2023/04/07 08:49:06;;;;;;;;;;;11.30;1.00;;;;;;5076567;28;20348;-84
2023/04/07 08:51:43;;;;;;;;;;;11.30;1.00;;;;;;5088479;28;19943;-85
2023/04/07 08:54:11;;;;;;;;;;;11.20;1.00;;;;;;5078612;28;19904;-84
2023/04/07 08:56:52;;;;;;;;;;;11.30;1.00;;;;;;5096698;28;20416;-84
2023/04/07 08:59:28;;;;;;;;;;;11.30;1.00;;;;;;5078564;28;19915;-84
2023/04/07 09:01:54;;;;;;;;;;;11.40;1.00;;;;;;5078577;28;19904;-84
2023/04/07 09:04:33;;;;;;;;;;;11.50;1.00;;;;;;5077560;28;19908;-84
2023/04/07 09:07:27;;;;;;;;;;;11.60;1.00;;;;;;5076046;28;19963;-84
2023/04/07 09:10:27;;;;;;;;;;;11.70;1.00;;;;;;5077324;28;19904;-84
2023/04/07 09:16:03;;;;;;;;;;;12.00;1.00;;;;;;5088089;28;19953;-84
2023/04/07 09:18:29;;;;;;;;;;;12.10;1.00;;;;;;5058867;28;20267;-85
2023/04/07 09:21:03;;;;;;;;;;;12.10;1.00;;;;;;5058675;28;19911;-85
2023/04/07 09:23:35;;;;;;;;;;;12.20;1.00;;;;;;5065560;28;19914;-84
2023/04/07 09:26:33;;;;;;;;;;;12.30;1.00;;;;;;5061337;28;19912;-85
2023/04/07 09:29:17;;;;;;;;;;;12.50;1.00;;;;;;5078938;28;19944;-85
2023/04/07 09:31:45;;;;;;;;;;;12.70;1.00;;;;;;5084988;28;20963;-85
2023/04/07 09:37:21;;;;;;;;;;;12.80;1.00;;;;;;5084337;28;20313;-85
2023/04/07 09:40:03;;;;;;;;;;;12.70;1.00;;;;;;5064727;28;19908;-85
2023/04/07 09:42:36;;;;;;;;;;;12.50;1.00;;;;;;5087070;28;19921;-85
2023/04/07 09:45:03;;;;;;;;;;;12.50;1.00;;;;;;5076031;28;19909;-84
2023/04/07 09:47:33;;;;;;;;;;;12.50;1.00;;;;;;5058204;28;19935;-85
2023/04/07 09:50:05;;;;;;;;;;;12.40;1.00;;;;;;5057757;28;20267;-85
2023/04/07 09:55:41;;;;;;;;;;;12.10;1.00;;;;;;5075458;28;20398;-85
2023/04/07 09:58:21;;;;;;;;;;;12.00;1.00;;;;;;5075428;28;19955;-84
2023/04/07 10:00:47;;;;;;;;;;;11.90;1.00;;;;;;5074043;28;19909;-85
2023/04/07 10:03:21;;;;;;;;;;;11.90;1.00;;;;;;5068041;28;19904;-86
2023/04/07 10:06:10;;;;;;;;;;;11.90;1.00;;;;;;5077684;28;19919;-85
2023/04/07 10:08:40;;;;;;;;;;;11.80;1.00;;;;;;5072900;28;20275;-85
2023/04/07 10:11:16;;;;;;;;;;;11.80;1.00;;;;;;5085084;28;19962;-85
2023/04/07 10:14:03;;;;;;;;;;;11.80;1.00;;;;;;5057644;28;19904;-85
2023/04/07 10:16:34;;;;;;;;;;;11.80;1.00;;;;;;5069553;28;19905;-85
2023/04/07 10:19:05;;;;;;;;;;;11.70;1.00;;;;;;5066187;28;19987;-85
2023/04/07 10:21:34;;;;;;;;;;;11.70;1.00;;;;;;5073723;28;20488;-85
2023/04/07 10:24:18;;;;;;;;;;;11.80;1.00;;;;;;5057080;28;19913;-85
2023/04/07 10:27:15;;;;;;;;;;;11.90;1.00;;;;;;5054622;28;19914;-84
2023/04/07 10:33:03;;;;;;;;;;;12.00;1.00;;;;;;5074934;28;19954;-84
2023/04/07 10:36:04;;;;;;;;;;;12.10;1.00;;;;;;5057290;28;19916;-85
2023/04/07 10:38:33;;;;;;;;;;;12.10;1.00;;;;;;5070777;28;19915;-85
2023/04/07 10:41:24;;;;;;;;;;;12.20;1.00;;;;;;5094644;28;19908;-85
2023/04/07 10:43:49;;;;;;;;;;;12.30;1.00;;;;;;5016234;28;19905;-85
2023/04/07 10:46:33;;;;;;;;;;;12.40;1.00;;;;;;5016258;28;19909;-85
2023/04/07 10:49:33;;;;;;;;;;;12.40;1.00;;;;;;5016052;28;19905;-84
2023/04/07 10:52:33;;;;;;;;;;;12.40;1.00;;;;;;5017260;28;19906;-84
2023/04/07 10:55:17;;;;;;;;;;;12.40;1.00;;;;;;5016439;28;20443;-85
2023/04/07 10:58:11;;;;;;;;;;;12.40;1.00;;;;;;5032424;28;20006;-84
2023/04/07 11:01:12;;;;;;;;;;;12.40;1.00;;;;;;5008109;28;20368;-84
2023/04/07 11:04:05;;;;;;;;;;;12.30;1.00;;;;;;4970052;28;20262;-84
2023/04/07 11:06:33;;;;;;;;;;;12.20;1.00;;;;;;4973246;28;19954;-84
2023/04/07 11:09:17;;;;;;;;;;;12.20;1.00;;;;;;4973739;28;20589;-83
2023/04/07 11:12:03;;;;;;;;;;;12.20;1.00;;;;;;4972790;28;19910;-84
2023/04/07 11:14:36;;;;;;;;;;;12.20;1.00;;;;;;4973802;28;19945;-84
2023/04/07 11:17:03;;;;;;;;;;;12.20;1.00;;;;;;4972673;28;19917;-84
2023/04/07 11:19:49;;;;;;;;;;;12.10;1.00;;;;;;4972342;28;19961;-84
2023/04/07 11:22:36;;;;;;;;;;;12.20;1.00;;;;;;5011055;28;19996;-84
2023/04/07 11:25:18;;;;;;;;;;;12.20;1.00;;;;;;5011710;28;19932;-86
2023/04/07 11:28:03;;;;;;;;;;;12.10;1.00;;;;;;5015712;28;19959;-85
2023/04/07 11:30:35;;;;;;;;;;;12.10;1.00;;;;;;5015621;28;19905;-85
2023/04/07 11:33:03;;;;;;;;;;;12.10;1.00;;;;;;5030381;28;20003;-84
2023/04/07 11:35:34;;;;;;;;;;;12.20;1.00;;;;;;5026987;28;20003;-85
2023/04/07 11:41:18;;;;;;;;;;;12.30;1.00;;;;;;5092736;28;19960;-84
2023/04/07 11:44:04;;;;;;;;;;;12.30;1.00;;;;;;5076229;28;19908;-84
2023/04/07 11:46:29;;;;;;;;;;;12.30;1.00;;;;;;5072689;28;20429;-84
2023/04/07 11:49:06;;;;;;;;;;;12.30;1.00;;;;;;5073444;28;19904;-85
2023/04/07 11:51:32;;;;;;;;;;;12.20;1.00;;;;;;5055995;28;20351;-85
2023/04/07 11:54:04;;;;;;;;;;;12.10;1.00;;;;;;5056114;28;19957;-85
2023/04/07 11:59:33;;;;;;;;;;;11.90;1.00;;;;;;5083063;28;19915;-85
2023/04/07 12:02:04;;;;;;;;;;;11.90;1.00;;;;;;5098045;28;19943;-88
2023/04/07 12:05:03;;;;;;;;;;;11.80;1.00;;;;;;5098149;28;19904;-86
2023/04/07 12:10:34;;;;;;;;;;;11.70;1.00;;;;;;5094633;28;19994;-84
2023/04/07 12:13:03;;;;;;;;;;;11.60;1.00;;;;;;5091063;28;19963;-85
2023/04/07 12:16:03;;;;;;;;;;;11.70;1.00;;;;;;5077690;28;19934;-85
2023/04/07 12:18:40;;;;;;;;;;;11.70;1.00;;;;;;5079594;28;19904;-84
2023/04/07 12:21:12;;;;;;;;;;;11.90;1.00;;;;;;5079523;28;19904;-83
2023/04/07 12:23:46;;;;;;;;;;;12.00;1.00;;;;;;5097207;28;19915;-84
2023/04/07 12:29:34;;;;;;;;;;;12.00;1.00;;;;;;5076952;28;19927;-85
2023/04/07 12:32:21;;;;;;;;;;;12.00;1.00;;;;;;5077108;28;19908;-85
2023/04/07 12:35:09;;;;;;;;;;;11.90;1.00;;;;;;5077474;28;19910;-85
2023/04/07 12:37:39;;;;;;;;;;;11.90;1.00;;;;;;5077139;28;19954;-85
2023/04/07 12:43:08;;;;;;;;;;;12.10;1.00;;;;;;5096943;28;19952;-84
2023/04/07 12:46:03;;;;;;;;;;;12.00;1.00;;;;;;5096801;28;20339;-85
2023/04/07 12:48:34;;;;;;;;;;;12.10;1.00;;;;;;5070881;28;19912;-81
2023/04/07 12:51:00;;;;;;;;;;;12.10;1.00;;;;;;5081237;28;19916;-82
2023/04/07 12:53:40;;;;;;;;;;;12.20;1.00;;;;;;5073402;28;19908;-81
2023/04/07 12:56:11;;;;;;;;;;;12.40;1.00;;;;;;5059578;28;19969;-85
2023/04/07 12:58:38;;;;;;;;;;;12.60;1.00;;;;;;5088226;28;19996;-81
2023/04/07 13:01:04;;;;;;;;;;;12.80;1.00;;;;;;5068609;28;20267;-82
2023/04/07 13:03:40;;;;;;;;;;;12.80;1.00;;;;;;5080494;28;20011;-84
2023/04/07 13:06:21;;;;;;;;;;;12.80;1.00;;;;;;5077961;28;19908;-84
2023/04/07 13:08:57;;;;;;;;;;;12.80;1.00;;;;;;5096903;28;19904;-84
2023/04/07 13:11:28;;;;;;;;;;;12.80;1.00;;;;;;5090146;28;19904;-87
2023/04/07 13:17:04;;;;;;;;;;;13.30;1.00;;;;;;5076661;28;19916;-84
2023/04/07 13:19:51;;;;;;;;;;;13.50;1.00;;;;;;5059018;28;19904;-84
2023/04/07 13:22:22;;;;;;;;;;;13.70;1.00;;;;;;5060602;28;19911;-83
2023/04/07 13:27:50;;;;;;;;;;;14.00;1.00;;;;;;5076246;28;19962;-84
2023/04/07 13:30:27;;;;;;;;;;;14.30;1.00;;;;;;5077271;28;19904;-82
2023/04/07 13:33:09;;;;;;;;;;;14.20;1.00;;;;;;5075961;28;19911;-83
2023/04/07 13:35:40;;;;;;;;;;;14.40;1.00;;;;;;5058107;28;19912;-78
2023/04/07 13:38:10;;;;;;;;;;;14.70;1.00;;;;;;5075609;28;19909;-77
2023/04/07 13:40:48;;;;;;;;;;;14.80;1.00;;;;;;5075961;28;19962;-77
2023/04/07 13:43:21;;;;;;;;;;;15.20;1.00;;;;;;5078509;28;19908;-77
2023/04/07 13:45:48;;;;;;;;;;;15.60;1.00;;;;;;5095758;28;19935;-77
2023/04/07 13:48:27;;;;;;;;;;;15.80;1.00;;;;;;5095759;28;19915;-78
2023/04/07 13:51:10;;;;;;;;;;;16.10;1.00;;;;;;5095903;28;19953;-83
2023/04/07 13:53:46;;;;;;;;;;;16.40;1.00;;;;;;5088493;28;19908;-83
2023/04/07 13:56:16;;;;;;;;;;;16.70;1.00;;;;;;5075273;28;19916;-84
2023/04/07 13:59:03;;;;;;;;;;;16.80;1.00;;;;;;5075931;28;19944;-83
2023/04/07 14:01:29;;;;;;;;;;;16.80;1.00;;;;;;5077058;28;19943;-83
2023/04/07 14:04:27;;;;;;;;;;;16.80;1.00;;;;;;5075594;28;20393;-83
2023/04/07 14:06:58;;;;;;;;;;;16.70;1.00;;;;;;5074301;28;19908;-83
2023/04/07 14:09:28;;;;;;;;;;;16.50;1.00;;;;;;5067019;28;19999;-83
2023/04/07 14:15:04;;;;;;;;;;;17.10;1.00;;;;;;5082097;28;19930;-83
2023/04/07 14:20:32;;;;;;;;;;;17.30;1.00;;;;;;5095565;28;20018;-78
2023/04/07 14:26:21;;;;;;;;;;;16.50;1.00;;;;;;5094674;28;20004;-79
2023/04/07 14:28:58;;;;;;;;;;;16.10;1.00;;;;;;5084457;28;20260;-79
2023/04/07 14:31:23;;;;;;;;;;;15.70;1.00;;;;;;5075078;28;19904;-79
2023/04/07 14:33:49;;;;;;;;;;;15.40;1.00;;;;;;5074776;28;19912;-79
2023/04/07 14:36:17;;;;;;;;;;;15.00;1.00;;;;;;5069987;28;19908;-84
2023/04/07 14:39:03;;;;;;;;;;;14.80;1.00;;;;;;5077118;28;19999;-84
2023/04/07 14:44:57;;;;;;;;;;;14.80;1.00;;;;;;5093318;28;20286;-84
2023/04/07 14:47:51;;;;;;;;;;;15.10;1.00;;;;;;5086216;28;19912;-83
2023/04/07 14:50:17;;;;;;;;;;;15.40;1.00;;;;;;5056683;28;19951;-83
2023/04/07 14:52:43;;;;;;;;;;;15.60;1.00;;;;;;5074670;28;19911;-78
2023/04/07 14:55:09;;;;;;;;;;;15.80;1.00;;;;;;5073968;28;19916;-78
2023/04/07 14:57:35;;;;;;;;;;;16.00;1.00;;;;;;5092629;28;20302;-78
2023/04/07 15:00:02;;;;;;;;;;;15.90;1.00;;;;;;5092725;28;19908;-78
2023/04/07 15:02:28;;;;;;;;;;;15.90;1.00;;;;;;5087818;28;19951;-78
2023/04/07 15:04:58;;;;;;;;;;;15.70;1.00;;;;;;5077798;28;20358;-78
2023/04/07 15:07:57;;;;;;;;;;;15.50;1.00;;;;;;5092927;28;19912;-84
2023/04/07 15:10:23;;;;;;;;;;;15.30;1.00;;;;;;5067466;28;20267;-84
2023/04/07 15:13:09;;;;;;;;;;;14.90;1.00;;;;;;5084953;28;19999;-84
2023/04/07 15:15:51;;;;;;;;;;;14.80;1.00;;;;;;5070531;28;19908;-84
2023/04/07 15:21:27;;;;;;;;;;;14.70;1.00;;;;;;5094575;28;19961;-78
2023/04/07 15:23:53;;;;;;;;;;;14.80;1.00;;;;;;5083030;28;19915;-76
2023/04/07 15:26:20;;;;;;;;;;;14.80;1.00;;;;;;5068347;28;19912;-77
2023/04/07 15:34:57;;;;;;;;;;;14.90;1.00;;;;;;5088135;28;19954;-89
2023/04/07 15:37:23;;;;;;;;;;;14.90;1.00;;;;;;5061829;28;19947;-80
2023/04/07 15:40:21;;;;;;;;;;;14.70;1.00;;;;;;5090744;28;19916;-82
2023/04/07 15:42:51;;;;;;;;;;;14.50;1.00;;;;;;5077761;28;19910;-82
2023/04/07 15:45:28;;;;;;;;;;;14.20;1.00;;;;;;5070501;28;19912;-80
2023/04/07 15:47:58;;;;;;;;;;;14.10;1.00;;;;;;5077430;28;19912;-83
2023/04/07 15:50:29;;;;;;;;;;;13.90;1.00;;;;;;5059267;28;19905;-83
2023/04/07 15:52:54;;;;;;;;;;;13.80;1.00;;;;;;5077446;28;19931;-82
2023/04/07 15:55:27;;;;;;;;;;;13.80;1.00;;;;;;5091998;28;19916;-84
2023/04/07 15:58:04;;;;;;;;;;;13.90;1.00;;;;;;5060997;28;19958;-83
2023/04/07 16:03:32;;;;;;;;;;;14.00;1.00;;;;;;5077009;28;19962;-83
2023/04/07 16:06:10;;;;;;;;;;;14.10;1.00;;;;;;5070328;28;19908;-77
2023/04/07 16:08:35;;;;;;;;;;;14.00;1.00;;;;;;5080092;28;19908;-81
2023/04/07 16:11:21;;;;;;;;;;;13.90;1.00;;;;;;5096955;28;19911;-81
2023/04/07 16:13:47;;;;;;;;;;;13.80;1.00;;;;;;5096835;28;19998;-80
2023/04/07 16:16:35;;;;;;;;;;;13.50;1.00;;;;;;5078416;28;20374;-81
2023/04/07 16:19:01;;;;;;;;;;;13.30;1.00;;;;;;5095132;28;20303;-81
2023/04/07 16:21:28;;;;;;;;;;;13.20;1.00;;;;;;5073751;28;19918;-80
2023/04/07 16:24:04;;;;;;;;;;;13.10;1.00;;;;;;5096219;28;19915;-81
2023/04/07 16:26:40;;;;;;;;;;;13.10;1.00;;;;;;5097168;28;20044;-81
2023/04/07 16:29:09;;;;;;;;;;;13.50;1.00;;;;;;5079088;28;19950;-81
2023/04/07 16:31:58;;;;;;;;;;;14.50;1.00;;;;;;5095384;28;19911;-81
2023/04/07 16:38:02;;;;;;;;;;;18.10;1.00;;;;;;5082923;28;19915;-86